• Join FlightAware (Why Join?)
  • Login
  • US Flag 
04:20PM EDT


 

Airport Tracker/Info


-or-


 

Live Flight TrackerFlight Track Log ✈ UAL3767 ✈ 19-Oct-2013 ✈ KMIA - KIAD

Flight Track Log - Related Links

Times and Time Zones

All times are in EDT time to prevent confusion due to time zone crossing. See the UAL3767 flight status page for this flight to view local times or setup timezone preferences in your user account.

Time Position Orientation Groundspeed Altitude Reporting Facility
EDT Latitude Longitude Course Direction KTS MPH feet Rate Location/Type
09:11AM 26.3053 -80.4650 337° Northwest 368 423 15,900  Level Miami Center
09:14AM 26.5669 -80.4106 334° Northwest  Level Estimated
09:16AM 26.8192 -80.7067 341° North 408 470 22,600  Level Miami Center
09:17AM 26.9308 -80.7500 341° North 413 475 23,900 1,140 Climbing Miami Center
09:18AM 27.0425 -80.7908 342° North 418 481 24,900 900 Climbing Miami Center
09:19AM 27.1583 -80.8297 343° North 423 487 25,800 900 Climbing Miami Center
09:20AM 27.2739 -80.8736 341° North 428 493 26,800 900 Climbing Miami Center
09:21AM 27.3747 -80.2411 342° North  Level Estimated
09:21AM 27.3794 -80.9075 344° North 433 498 27,600  Level Miami Center
09:22AM 27.4901 -80.2167 341° North  Level Estimated
09:22AM 27.4953 -80.9492 342° North 433 498 28,500  Level Miami Center
09:23AM 27.6131 -80.9931 342° North 438 504 29,300 780 Climbing Miami Center
09:24AM 27.7350 -81.0350 343° North 438 504 30,100 780 Climbing Miami Center
09:25AM 27.8544 -81.0817 341° North 438 504 30,900 900 Climbing Miami Center
09:26AM 27.9764 -81.1286 341° North 447 514 31,900 1,020 Climbing Miami Center
09:27AM 28.1083 -81.1783 342° North 447 514 33,000 960 Climbing Miami Center
09:29AM 28.3086 -81.2517 342° North 448 516 34,600 960 Climbing Jacksonville Center
09:30AM 28.4217 -81.2900 343° North 443 510 35,600 960 Climbing Jacksonville Center
09:31AM 28.5350 -81.3331 342° North 432 497 36,600 660 Climbing Jacksonville Center
09:32AM 28.6539 -81.3478 354° North 426 490 37,000 180 Climbing Jacksonville Center
09:33AM 28.7772 -81.3600 355° North 433 498 37,000  Level Jacksonville Center
09:34AM 28.9047 -81.3722 355° North 446 513 37,000  Level Jacksonville Center
09:35AM 29.0322 -81.3822 356° North 452 520 37,000  Level Jacksonville Center
09:36AM 29.1675 -81.3636 North 468 539 37,000  Level Jacksonville Center
09:37AM 29.2967 -81.3233 15° North 468 539 37,000  Level Jacksonville Center
09:38AM 29.4275 -81.2783 17° North 473 544 37,000  Level Jacksonville Center
09:39AM 29.5542 -81.2358 16° North 473 544 37,000  Level Jacksonville Center
09:40AM 29.6853 -81.1975 14° North 473 544 37,000  Level Jacksonville Center
09:41AM 29.8039 -81.1572 16° North 479 551 37,000  Level Jacksonville Center
09:42AM 29.9369 -81.1167 15° North 479 551 37,000  Level Jacksonville Center
09:43AM 30.0656 -81.0733 16° North 479 551 37,000  Level Jacksonville Center
09:44AM 30.1986 -81.0275 17° North 479 551 37,000  Level Jacksonville Center
09:45AM 30.3294 -80.9867 15° North 484 557 37,000  Level Jacksonville Center
09:46AM 30.4625 -80.9431 16° North 484 557 37,000  Level Jacksonville Center
09:47AM 30.5933 -80.9017 15° North 484 557 37,000  Level Jacksonville Center
09:48AM 30.7242 -80.8578 16° North 489 563 37,000  Level Jacksonville Center
09:49AM 30.8572 -80.8161 15° North 489 563 37,000  Level Jacksonville Center
09:50AM 30.9881 -80.7722 16° North 489 563 37,000  Level Jacksonville Center
09:51AM 31.1167 -80.7281 16° North 489 563 37,000  Level Jacksonville Center
09:52AM 31.2453 -80.6839 16° North 484 557 37,000  Level Jacksonville Center
09:53AM 31.3825 -80.6439 14° North 484 557 37,000  Level Jacksonville Center
09:54AM 31.5089 -80.5972 17° North 489 563 37,000  Level Jacksonville Center
09:55AM 31.6542 -80.5472 16° North 484 557 37,000  Level Jacksonville Center
09:56AM 31.7869 -80.5047 15° North 476 548 37,000  Level Jacksonville Center
09:57AM 31.9053 -80.4650 16° North 476 548 37,000  Level Jacksonville Center
09:58AM 32.0483 -80.4169 16° North 486 559 37,000  Level Jacksonville Center
09:59AM 32.1811 -80.3717 16° North 493 567 37,000  Level Jacksonville Center
10:00AM 32.3139 -80.3239 17° North 488 562 37,000  Level Jacksonville Center
10:01AM 32.4486 -80.2806 15° North 488 562 37,000  Level Jacksonville Center
10:02AM 32.5792 -80.2350 16° North 488 562 37,000  Level Jacksonville Center
10:03AM 32.7139 -80.1892 16° North 488 562 37,000  Level Jacksonville Center
10:04AM 32.8464 -80.1406 17° North 488 562 37,000  Level Jacksonville Center
10:05AM 32.9811 -80.0969 15° North 493 567 37,000  Level Jacksonville Center
10:06AM 33.1072 -80.0458 19° North 506 582 37,000  Level Jacksonville Center
10:07AM 33.2419 -80.0042 15° North 506 582 37,000  Level Jacksonville Center
10:08AM 33.3725 -79.9603 16° North 501 577 37,000  Level Jacksonville Center
10:09AM 33.5050 -79.9136 16° North 494 568 37,000  Level Jacksonville Center
10:10AM 33.6394 -79.8689 15° North 489 563 37,000  Level Jacksonville Center
10:11AM 33.7739 -79.8194 17° North 489 563 37,000  Level Jacksonville Center
10:12AM 33.9083 -79.7722 16° North 489 563 37,000  Level Jacksonville Center
10:13AM 34.0428 -79.7272 16° North 489 563 37,000  Level Jacksonville Center
10:14AM 34.1747 -79.6647 21° North 489 563 37,000  Level Jacksonville Center
10:16AM 34.4111 -79.5417 23° Northeast 504 580 37,000  Level Washington Center
10:17AM 34.5428 -79.4772 22° Northeast 504 580 37,000  Level Washington Center
10:18AM 34.6722 -79.4053 25° Northeast 504 580 37,000  Level Washington Center
10:19AM 34.8039 -79.3356 23° Northeast 504 580 37,000  Level Washington Center
10:20AM 34.9353 -79.2656 24° Northeast 504 580 37,000  Level Washington Center
10:21AM 35.0689 -79.1956 23° Northeast 504 580 37,000  Level Washington Center
10:22AM 35.2006 -79.1250 24° Northeast 509 586 37,000  Level Washington Center
10:23AM 35.3317 -79.0572 23° Northeast 509 586 37,000  Level Washington Center
10:24AM 35.4675 -78.9839 24° Northeast 509 586 37,000  Level Washington Center
10:25AM 35.5989 -78.9128 24° Northeast 509 586 37,000 -360 Level Washington Center
10:26AM 35.7322 -78.8392 24° Northeast 509 586 36,300 -1,680 Descending Washington Center
10:27AM 35.8658 -78.7650 24° Northeast 509 586 33,700 -2,580 Descending Washington Center
10:28AM 36.0139 -78.6864 23° Northeast 509 586 31,200 -2,580 Descending Washington Center
10:29AM 36.1494 -78.6092 25° Northeast 516 594 28,700 -2,160 Descending Washington Center
10:30AM 36.2847 -78.5347 24° Northeast 522 601 27,000 -900 Descending Washington Center
10:31AM 36.4139 -78.4619 24° Northeast 522 601 27,000  Level Washington Center
10:32AM 36.5406 -78.3917 24° Northeast 503 579 27,000  Level Washington Center
10:33AM 36.6675 -78.3211 24° Northeast 503 579 27,000  Level Washington Center
10:34AM 36.8028 -78.2431 25° Northeast 508 585 27,000  Level Washington Center
10:35AM 36.9358 -78.1669 25° Northeast 514 592 27,000  Level Washington Center
10:36AM 37.0708 -78.0908 24° Northeast 526 605 27,000  Level Washington Center
10:37AM 37.1956 -78.0219 24° Northeast 535 616 27,000  Level Washington Center
10:38AM 37.3411 -77.9350 25° Northeast 530 610 27,000 -660 Level Washington Center
10:39AM 37.4719 -77.8631 24° Northeast 523 602 25,700 -1,860 Descending Washington Center
10:40AM 37.5919 -77.7933 25° Northeast 493 567 23,400 -2,040 Descending Washington Center
10:41AM 37.7011 -77.7572 15° North 433 498 21,600 -2,100 Descending Washington Center
10:42AM 37.8058 -77.7417 North 399 459 19,200 -2,400 Descending Washington Center
10:43AM 37.9061 -77.7183 10° North 386 444 16,900 -2,340 Descending Washington Center
10:44AM 37.9889 -77.6389 37° Northeast 354 407 14,600 -2,100 Descending Washington Center
10:45AM 38.0589 -77.5697 38° Northeast 354 407 12,800 -1,920 Descending Washington Center
10:46AM 38.1331 -77.4978 37° Northeast 349 402 10,800 -1,380 Descending Washington Center
10:47AM 38.2197 -77.4286 32° Northeast 339 390 10,000 -720 Descending Washington Center
10:48AM 38.3017 -77.3775 26° Northeast 332 382 9,500 -1,020 Descending Washington Center
10:49AM 38.3856 -77.3583 10° North 304 350 8,000 -1,500 Descending Washington Center
10:50AM 38.4689 -77.3606 359° North 299 344 6,600 -1,260 Descending Washington Center
10:51AM 38.5458 -77.3650 357° North 285 328 5,500 -1,020 Descending Washington Center
10:52AM 38.6250 -77.3669 359° North 279 321 4,600 -900 Descending Washington Center
10:52AM 38.6667 -77.3667 360° North 280 322 4,200 -420 Descending Potomac TRACON
10:53AM 38.7500 -77.3667 360° North 278 320 4,000 -120 Descending Potomac TRACON
10:54AM 38.8167 -77.3500 11° North 281 323 4,000  Level Potomac TRACON
10:55AM 38.9000 -77.3500 360° North 280 322 4,000  Level Potomac TRACON
10:56AM 38.9833 -77.3500 360° North 279 321 4,000 -180 Level Potomac TRACON
10:57AM 39.0667 -77.3500 360° North 272 313 3,700 -540 Descending Potomac TRACON
10:58AM 39.1333 -77.3500 360° North 265 305 3,000 -420 Descending Potomac TRACON
10:59AM 39.2000 -77.3333 11° North 246 283 3,000  Level Potomac TRACON
11:00AM 39.2333 -77.4000 303° West 235 270 3,000  Level Potomac TRACON
11:01AM 39.2000 -77.4333 218° Southwest 207 238 3,000  Level Potomac TRACON
11:02AM 39.1333 -77.4333 180° South 199 229 3,000 -60 Level Potomac TRACON
11:03AM 39.0833 -77.4333 180° South 196 226 2,900 -600 Descending Potomac TRACON
11:04AM 39.0333 -77.4333 180° South 175 201 1,800 -900 Descending Potomac TRACON
11:05AM 39.0000 -77.4333 180° South 131 151 1,100 -660 Descending Potomac TRACON
11:07AM 38.9474 -77.4599 195° South  Level Estimated
11:14AM 38.9474 -77.4599 195° South  Level Estimated
11:15AM 38.9474 -77.4599 195° South  Level Estimated